Time;durP1;ratioP1;P1;durP2;ratioP2;P2;SDS_P1;SDS_P2;PMS_P1;PMS_P2;Temp;Humidity;BMP_temperature;BMP_pressure;BME280_temperature;BME280_humidity;BME280_pressure;Samples;Min_cycle;Max_cycle;Signal;HPM_P1;HPM_P2
2021/08/28 00:07:17;;;;;;;13.00;5.68;;;14.70;99.90;;;;;;6717259;88;20678;-76
2021/08/28 00:17:18;;;;;;;13.57;7.23;;;14.70;99.90;;;;;;6716699;88;20192;-76
2021/08/28 00:27:18;;;;;;;22.05;10.77;;;14.60;99.90;;;;;;6716631;88;20503;-75
2021/08/28 00:37:19;;;;;;;25.20;12.48;;;14.50;99.90;;;;;;6716104;88;20203;-76
2021/08/28 00:47:19;;;;;;;21.73;10.40;;;14.50;99.90;;;;;;6716233;88;21021;-74
2021/08/28 00:57:21;;;;;;;24.27;10.32;;;14.50;99.90;;;;;;6715964;88;20203;-75
2021/08/28 01:07:35;;;;;;;22.37;12.00;;;14.50;99.90;;;;;;6716003;88;20353;-76
2021/08/28 01:17:39;;;;;;;28.58;14.45;;;14.40;99.90;;;;;;6715901;88;20234;-75
2021/08/28 01:27:52;;;;;;;26.97;13.30;;;14.40;99.90;;;;;;6716119;88;20185;-76
2021/08/28 01:37:54;;;;;;;33.35;15.85;;;14.40;99.90;;;;;;6715794;88;20370;-76
2021/08/28 01:47:56;;;;;;;37.00;18.20;;;14.40;99.90;;;;;;6714074;88;20230;-75
2021/08/28 01:57:56;;;;;;;32.53;16.70;;;14.40;99.90;;;;;;6715060;88;20255;-75
2021/08/28 02:08:05;;;;;;;31.95;17.00;;;14.50;99.90;;;;;;6714632;88;20362;-76
2021/08/28 02:18:38;;;;;;;32.97;16.15;;;14.50;99.90;;;;;;6714801;88;20208;-75
2021/08/28 02:28:45;;;;;;;34.15;16.55;;;14.40;99.90;;;;;;6714982;88;20174;-76
2021/08/28 02:38:48;;;;;;;34.05;15.70;;;14.40;99.90;;;;;;6714325;88;20202;-75
2021/08/28 02:48:51;;;;;;;41.05;16.67;;;14.40;99.90;;;;;;6714720;88;20198;-76
2021/08/28 02:58:52;;;;;;;39.47;17.80;;;14.40;99.90;;;;;;6713980;88;20196;-75
2021/08/28 03:08:53;;;;;;;42.78;19.62;;;14.40;99.90;;;;;;6715134;88;20182;-76
2021/08/28 03:18:56;;;;;;;43.47;20.52;;;14.40;99.90;;;;;;6715673;88;20218;-75
2021/08/28 03:28:57;;;;;;;48.87;21.27;;;14.30;99.90;;;;;;6717267;88;20317;-75
2021/08/28 03:39:00;;;;;;;48.08;21.37;;;14.30;99.90;;;;;;6717289;88;20258;-75
2021/08/28 03:49:00;;;;;;;50.12;19.90;;;14.30;99.90;;;;;;6716577;88;20209;-74
2021/08/28 03:59:01;;;;;;;49.33;20.70;;;14.20;99.90;;;;;;6716488;88;20306;-76
2021/08/28 04:09:02;;;;;;;61.17;23.20;;;14.20;99.90;;;;;;6716324;88;20244;-76
2021/08/28 04:19:02;;;;;;;57.53;23.77;;;14.30;99.90;;;;;;6715603;88;20916;-76
2021/08/28 04:29:03;;;;;;;48.70;19.67;;;14.30;99.90;;;;;;6716746;88;20197;-76
2021/08/28 04:39:03;;;;;;;47.78;18.92;;;14.20;99.90;;;;;;6717807;88;21046;-76
2021/08/28 04:49:04;;;;;;;54.90;20.73;;;14.20;99.90;;;;;;6716987;88;20559;-76
2021/08/28 04:59:05;;;;;;;67.73;23.17;;;14.20;99.90;;;;;;6716031;88;20540;-75
2021/08/28 05:09:05;;;;;;;53.75;21.15;;;14.10;99.90;;;;;;6715082;88;20544;-76
2021/08/28 05:19:06;;;;;;;61.40;21.65;;;14.20;99.90;;;;;;6713031;88;20628;-74
2021/08/28 05:29:06;;;;;;;77.93;27.05;;;14.20;99.90;;;;;;6712019;88;20215;-74
2021/08/28 05:39:07;;;;;;;94.13;28.50;;;14.20;99.90;;;;;;6712166;88;20200;-74
2021/08/28 05:49:07;;;;;;;85.07;26.60;;;14.20;99.90;;;;;;6712429;88;20210;-74
2021/08/28 05:59:08;;;;;;;73.72;26.33;;;14.20;99.90;;;;;;6712096;88;20319;-74
2021/08/28 06:09:08;;;;;;;61.08;23.25;;;14.20;99.90;;;;;;6712458;88;20176;-74
2021/08/28 06:19:09;;;;;;;49.25;20.83;;;14.30;99.90;;;;;;6713280;88;20193;-75
2021/08/28 06:29:09;;;;;;;45.10;19.92;;;14.40;99.90;;;;;;6711484;88;20255;-74
2021/08/28 06:39:10;;;;;;;52.90;20.30;;;14.40;99.90;;;;;;6711338;88;20716;-74
2021/08/28 06:49:10;;;;;;;45.35;19.52;;;14.50;99.90;;;;;;6711261;88;20803;-74
2021/08/28 06:59:11;;;;;;;39.35;17.12;;;14.60;99.90;;;;;;6713530;88;20211;-74
2021/08/28 07:09:12;;;;;;;33.15;14.35;;;14.60;99.90;;;;;;6713787;88;20269;-75
2021/08/28 07:19:13;;;;;;;30.10;14.07;;;14.60;99.90;;;;;;6713873;88;20238;-74
2021/08/28 07:29:13;;;;;;;26.37;12.10;;;14.70;99.90;;;;;;6714262;88;20701;-74
2021/08/28 07:39:14;;;;;;;16.65;9.60;;;14.80;99.90;;;;;;6716662;88;20214;-74
2021/08/28 07:49:16;;;;;;;16.48;9.68;;;14.80;99.90;;;;;;6714346;88;20193;-74
2021/08/28 07:59:17;;;;;;;14.25;9.40;;;14.80;99.90;;;;;;6713255;88;20238;-74
2021/08/28 08:09:17;;;;;;;19.27;9.85;;;14.90;99.90;;;;;;6712536;88;20730;-74
2021/08/28 08:19:18;;;;;;;13.73;10.17;;;15.00;99.90;;;;;;6712837;88;20222;-74
2021/08/28 08:29:18;;;;;;;16.60;11.95;;;15.20;99.90;;;;;;6712761;88;20219;-75
2021/08/28 08:39:19;;;;;;;15.23;12.05;;;15.50;99.90;;;;;;6712620;88;20897;-74
2021/08/28 08:49:21;;;;;;;18.33;13.18;;;15.90;99.90;;;;;;6712799;88;20319;-74
2021/08/28 08:59:22;;;;;;;16.15;12.13;;;16.40;99.90;;;;;;6712650;88;20274;-74
2021/08/28 09:09:23;;;;;;;20.60;12.40;;;16.30;99.90;;;;;;6713284;88;20213;-74
2021/08/28 09:19:38;;;;;;;17.60;11.25;;;16.60;99.90;;;;;;6712681;88;20241;-74
2021/08/28 09:29:42;;;;;;;12.10;8.17;;;16.90;99.90;;;;;;6712395;88;20256;-74
2021/08/28 09:39:49;;;;;;;9.30;6.00;;;17.00;99.90;;;;;;6712121;88;20184;-74
2021/08/28 09:49:52;;;;;;;8.98;6.18;;;17.20;99.90;;;;;;6712049;88;20178;-74
2021/08/28 09:59:57;;;;;;;7.30;5.65;;;17.60;99.90;;;;;;6711755;88;20240;-74
2021/08/28 10:10:00;;;;;;;7.78;5.70;;;18.10;99.90;;;;;;6711510;88;20271;-74
2021/08/28 10:20:02;;;;;;;5.62;4.03;;;17.90;99.90;;;;;;6711323;88;20185;-74
2021/08/28 10:30:12;;;;;;;5.00;3.70;;;18.10;99.90;;;;;;6713121;88;20243;-75
2021/08/28 10:40:25;;;;;;;3.95;3.22;;;18.70;99.90;;;;;;6715552;88;20192;-74
2021/08/28 10:50:32;;;;;;;5.32;3.53;;;19.40;99.90;;;;;;6715248;88;20271;-74
2021/08/28 11:00:49;;;;;;;4.62;3.35;;;19.20;99.90;;;;;;6714174;88;20217;-74
2021/08/28 11:11:24;;;;;;;6.35;4.07;;;19.90;99.90;;;;;;6713544;88;20205;-74
2021/08/28 11:21:24;;;;;;;6.73;4.17;;;20.20;99.90;;;;;;6714525;88;20232;-75
2021/08/28 11:31:43;;;;;;;7.25;4.12;;;19.70;99.90;;;;;;6714025;88;20209;-75
2021/08/28 11:41:44;;;;;;;7.45;4.10;;;19.00;99.90;;;;;;6714366;88;20246;-74
2021/08/28 11:51:46;;;;;;;6.90;3.50;;;19.10;99.90;;;;;;6714057;88;20197;-75
2021/08/28 12:01:47;;;;;;;6.32;3.80;;;19.60;99.90;;;;;;6714389;88;20196;-75
2021/08/28 12:11:49;;;;;;;4.55;3.50;;;19.70;99.90;;;;;;6713993;88;20598;-75
2021/08/28 12:21:53;;;;;;;5.18;3.70;;;20.20;99.90;;;;;;6714253;88;20211;-74
2021/08/28 12:31:57;;;;;;;5.90;4.05;;;19.70;99.90;;;;;;6713728;88;20200;-74
2021/08/28 12:41:58;;;;;;;4.68;3.30;;;19.50;99.90;;;;;;6713429;88;20723;-76
2021/08/28 12:52:00;;;;;;;3.80;2.80;;;20.10;99.90;;;;;;6713051;88;20192;-75
2021/08/28 13:02:01;;;;;;;5.22;3.25;;;20.70;99.90;;;;;;6713052;88;20271;-74
2021/08/28 13:12:01;;;;;;;4.80;2.87;;;21.30;99.90;;;;;;6712781;88;20731;-75
2021/08/28 13:22:02;;;;;;;3.65;2.60;;;22.70;99.90;;;;;;6712737;88;20771;-74
2021/08/28 13:32:17;;;;;;;3.83;2.97;;;21.90;99.90;;;;;;6712762;88;20803;-75
2021/08/28 13:42:22;;;;;;;4.12;2.10;;;20.30;99.90;;;;;;6713063;88;20196;-75
2021/08/28 13:52:23;;;;;;;3.33;2.60;;;20.00;99.90;;;;;;6713656;88;20269;-75
2021/08/28 14:02:23;;;;;;;3.35;2.10;;;20.00;99.90;;;;;;6713059;88;20185;-75
2021/08/28 14:12:25;;;;;;;2.87;1.70;;;21.90;99.90;;;;;;6712110;88;20201;-75
2021/08/28 14:22:26;;;;;;;3.05;2.12;;;22.80;99.90;;;;;;6711988;88;20680;-75
2021/08/28 14:32:26;;;;;;;3.28;2.40;;;23.70;99.90;;;;;;6711778;88;20200;-75
2021/08/28 14:42:27;;;;;;;3.12;2.10;;;23.90;99.90;;;;;;6711878;88;20214;-75
2021/08/28 14:52:28;;;;;;;2.35;1.70;;;24.20;99.90;;;;;;6711500;88;20657;-75
2021/08/28 15:02:28;;;;;;;2.60;2.17;;;24.70;99.90;;;;;;6711706;88;20267;-76
2021/08/28 15:12:31;;;;;;;3.62;2.20;;;23.60;99.90;;;;;;6712005;88;20331;-75
2021/08/28 15:22:33;;;;;;;3.78;2.20;;;22.40;99.90;;;;;;6715021;88;20590;-74
2021/08/28 15:32:33;;;;;;;4.85;3.20;;;21.50;99.90;;;;;;6714630;88;20342;-75
2021/08/28 15:42:34;;;;;;;5.78;4.18;;;19.80;99.90;;;;;;6714134;88;20300;-75
2021/08/28 15:52:35;;;;;;;7.60;5.28;;;18.90;99.90;;;;;;6714333;88;20231;-75
2021/08/28 16:02:35;;;;;;;6.05;4.47;;;18.80;99.90;;;;;;6713877;88;20239;-75
2021/08/28 16:12:37;;;;;;;5.53;4.40;;;19.10;99.90;;;;;;6714212;88;20211;-75
2021/08/28 16:22:37;;;;;;;5.62;4.30;;;18.80;99.90;;;;;;6714234;88;20522;-75
2021/08/28 16:32:38;;;;;;;5.35;3.87;;;18.70;99.90;;;;;;6714292;88;20211;-75
2021/08/28 16:42:39;;;;;;;6.37;4.20;;;18.50;99.90;;;;;;6710102;88;20189;-76
2021/08/28 16:52:39;;;;;;;8.80;4.90;;;18.20;99.90;;;;;;6714300;88;20483;-75
2021/08/28 17:02:40;;;;;;;9.60;5.50;;;17.90;99.90;;;;;;6710930;88;20921;-75
2021/08/28 17:12:40;;;;;;;7.62;5.25;;;17.40;99.90;;;;;;6713170;88;20190;-75
2021/08/28 17:22:41;;;;;;;7.80;5.72;;;17.30;99.90;;;;;;6712445;77;20216;-79
2021/08/28 17:32:42;;;;;;;9.13;5.60;;;17.10;99.90;;;;;;6685912;88;20243;-78
2021/08/28 17:42:42;;;;;;;10.93;6.25;;;17.00;99.90;;;;;;6683893;88;20207;-77
2021/08/28 17:52:43;;;;;;;10.68;6.87;;;16.90;99.90;;;;;;6683964;88;20189;-77
2021/08/28 18:02:44;;;;;;;7.95;5.93;;;16.80;99.90;;;;;;6683863;88;20198;-78
2021/08/28 18:12:44;;;;;;;7.62;5.12;;;16.70;99.90;;;;;;6684816;88;20716;-78
2021/08/28 18:22:45;;;;;;;8.00;4.97;;;16.60;99.90;;;;;;6685647;88;20258;-78
2021/08/28 18:32:47;;;;;;;8.93;5.37;;;16.70;99.90;;;;;;6685333;88;20201;-78
2021/08/28 18:42:47;;;;;;;8.52;6.50;;;16.50;99.90;;;;;;6683794;88;20198;-79
2021/08/28 18:52:48;;;;;;;9.93;7.72;;;16.50;99.90;;;;;;6685866;88;20732;-78
2021/08/28 19:02:49;;;;;;;13.82;8.45;;;16.60;99.90;;;;;;6687091;88;20623;-78
2021/08/28 19:12:50;;;;;;;16.25;8.88;;;16.50;99.90;;;;;;6689419;88;20220;-78
2021/08/28 19:22:50;;;;;;;13.88;9.20;;;16.30;99.90;;;;;;6689568;88;20203;-78
2021/08/28 19:32:51;;;;;;;14.82;9.73;;;16.30;99.90;;;;;;6689692;88;20381;-77
2021/08/28 19:42:52;;;;;;;14.57;10.02;;;16.30;99.90;;;;;;6687853;88;20229;-78
2021/08/28 19:52:53;;;;;;;17.45;9.82;;;16.30;99.90;;;;;;6690385;88;20182;-79
2021/08/28 20:02:53;;;;;;;12.25;7.60;;;16.30;99.90;;;;;;6689301;88;20216;-77
2021/08/28 20:12:54;;;;;;;14.60;7.45;;;16.10;99.90;;;;;;6689455;88;20637;-77
2021/08/28 20:22:54;;;;;;;11.18;6.65;;;16.10;99.90;;;;;;6691421;88;20735;-77
2021/08/28 20:32:55;;;;;;;11.43;6.62;;;15.80;99.90;;;;;;6688102;88;20214;-77
2021/08/28 20:42:55;;;;;;;12.95;7.55;;;15.80;99.90;;;;;;6688135;88;20210;-78
2021/08/28 20:52:56;;;;;;;10.27;6.67;;;15.70;99.90;;;;;;6686578;88;20734;-77
2021/08/28 21:02:56;;;;;;;10.55;6.50;;;15.70;99.90;;;;;;6687284;88;20528;-78
2021/08/28 21:12:57;;;;;;;11.25;6.15;;;15.70;99.90;;;;;;6687173;88;20719;-77
2021/08/28 21:22:58;;;;;;;11.52;4.97;;;15.60;99.90;;;;;;6689598;88;20649;-77
2021/08/28 21:32:58;;;;;;;11.40;4.90;;;15.60;99.90;;;;;;6687460;88;20189;-77
2021/08/28 21:42:59;;;;;;;9.05;4.70;;;15.60;99.90;;;;;;6688182;88;20599;-77
2021/08/28 21:52:59;;;;;;;8.63;5.20;;;15.70;99.90;;;;;;6686834;88;20216;-78
2021/08/28 22:03:00;;;;;;;8.73;4.65;;;15.60;99.90;;;;;;6687280;88;20215;-78
2021/08/28 22:13:01;;;;;;;7.47;4.70;;;15.60;99.90;;;;;;6688075;88;20221;-77
2021/08/28 22:23:01;;;;;;;8.98;4.80;;;15.50;99.90;;;;;;6686545;88;20303;-76
2021/08/28 22:33:02;;;;;;;6.50;4.37;;;15.60;99.90;;;;;;6686445;88;20355;-78
2021/08/28 22:43:03;;;;;;;10.63;4.60;;;15.50;99.90;;;;;;6685327;88;20582;-76
2021/08/28 22:53:03;;;;;;;9.10;4.68;;;15.50;99.90;;;;;;6685873;88;20178;-77
2021/08/28 23:03:04;;;;;;;10.30;5.57;;;15.50;99.90;;;;;;6688095;88;20194;-77
2021/08/28 23:13:04;;;;;;;13.75;6.05;;;15.50;99.90;;;;;;6686357;88;20203;-78
2021/08/28 23:23:05;;;;;;;7.82;4.65;;;15.20;99.90;;;;;;6701154;77;20249;-74
2021/08/28 23:33:06;;;;;;;10.05;5.18;;;15.20;99.90;;;;;;6687919;88;20209;-73
2021/08/28 23:43:06;;;;;;;10.82;5.93;;;15.30;99.90;;;;;;6696212;88;20292;-74
2021/08/28 23:53:07;;;;;;;12.27;7.37;;;15.20;99.90;;;;;;6689911;88;20630;-74
